createdAt,value
2023-01-07T00:00:16.052Z,5.05
2023-01-07T00:05:18.792Z,5.07
2023-01-07T00:10:21.577Z,4.90
2023-01-07T00:15:24.282Z,5.13
2023-01-07T00:20:27.017Z,5.30
2023-01-07T00:25:30.025Z,4.43
2023-01-07T00:30:32.696Z,5.60
2023-01-07T00:35:38.364Z,5.53
2023-01-07T00:40:41.015Z,5.75
2023-01-07T00:45:44.736Z,6.03
2023-01-07T00:50:48.803Z,5.32
2023-01-07T00:55:52.276Z,6.40
2023-01-07T01:00:56.765Z,5.65
2023-01-07T01:06:05.183Z,6.65
2023-01-07T01:11:10.102Z,6.37
2023-01-07T01:16:18.604Z,6.68
2023-01-07T01:21:21.340Z,6.43
2023-01-07T01:26:24.398Z,7.32
2023-01-07T01:31:27.461Z,5.35
2023-01-07T01:36:30.106Z,5.87
2023-01-07T01:41:35.423Z,6.18
2023-01-07T01:46:42.452Z,4.73
2023-01-07T01:51:58.826Z,5.68
2023-01-07T01:57:04.699Z,6.30
2023-01-07T02:02:09.151Z,5.30
2023-01-07T02:07:17.775Z,5.70
2023-01-07T02:12:46.355Z,6.37
2023-01-07T02:18:26.271Z,6.57
2023-01-07T02:24:00.044Z,7.15
2023-01-07T02:29:14.516Z,6.00
2023-01-07T02:34:28.798Z,7.55
2023-01-07T02:39:50.227Z,7.57
2023-01-07T02:45:17.562Z,7.00
2023-01-07T02:50:21.869Z,6.80
2023-01-07T02:56:04.488Z,5.83
2023-01-07T03:01:41.071Z,7.10
2023-01-07T03:06:52.931Z,7.33
2023-01-07T03:12:04.579Z,6.53
2023-01-07T03:17:10.426Z,6.60
2023-01-07T03:22:15.135Z,7.10
2023-01-07T03:27:20.751Z,7.50
2023-01-07T03:32:30.067Z,7.13
2023-01-07T03:37:34.365Z,7.20
2023-01-07T03:42:40.907Z,7.03
2023-01-07T03:47:52.870Z,7.27
2023-01-07T03:52:56.173Z,7.63
2023-01-07T03:57:59.950Z,7.13
2023-01-07T04:03:02.702Z,7.18
2023-01-07T04:08:10.344Z,7.38
2023-01-07T04:13:14.974Z,6.07
2023-01-07T04:18:20.731Z,7.28
2023-01-07T04:23:23.440Z,7.10
2023-01-07T04:28:28.234Z,7.50
2023-01-07T04:33:31.081Z,7.25
2023-01-07T04:38:34.082Z,7.17
2023-01-07T04:43:36.875Z,7.00
2023-01-07T04:48:41.564Z,7.73
2023-01-07T04:53:44.655Z,7.78
2023-01-07T04:58:48.082Z,7.18
2023-01-07T05:03:51.095Z,8.00
2023-01-07T05:08:54.447Z,7.25
2023-01-07T05:14:01.184Z,7.37
2023-01-07T05:19:07.062Z,7.70
2023-01-07T05:24:14.305Z,7.80
2023-01-07T05:29:17.213Z,8.57
2023-01-07T05:34:20.639Z,8.40
2023-01-07T05:39:23.493Z,7.57
2023-01-07T05:44:26.239Z,8.30
2023-01-07T05:49:28.805Z,7.88
2023-01-07T05:54:31.479Z,8.27
2023-01-07T05:59:34.993Z,8.63
2023-01-07T06:04:37.658Z,7.50
2023-01-07T06:09:40.331Z,7.75
2023-01-07T06:14:42.846Z,7.55
2023-01-07T06:19:46.345Z,7.50
2023-01-07T06:24:49.451Z,8.38
2023-01-07T06:29:52.045Z,6.53
2023-01-07T06:34:54.884Z,7.05
2023-01-07T06:39:58.484Z,7.15
2023-01-07T06:45:01.256Z,7.87
2023-01-07T06:50:04.096Z,6.57
2023-01-07T06:55:07.124Z,7.73
2023-01-07T07:00:10.401Z,5.95
2023-01-07T07:05:13.557Z,7.20
2023-01-07T07:10:16.443Z,6.67
2023-01-07T07:15:19.370Z,6.95
2023-01-07T07:20:22.366Z,6.63
2023-01-07T07:25:26.411Z,7.03
2023-01-07T07:30:45.873Z,6.82
2023-01-07T07:35:50.615Z,7.50
2023-01-07T07:40:53.551Z,7.88
2023-01-07T07:45:58.483Z,8.37
2023-01-07T07:51:01.185Z,8.10
2023-01-07T07:56:04.063Z,8.50
2023-01-07T08:01:06.935Z,7.20
2023-01-07T08:06:11.894Z,7.40
2023-01-07T08:11:14.586Z,7.97
2023-01-07T08:16:17.463Z,7.50
2023-01-07T08:21:20.250Z,8.38
2023-01-07T08:26:23.043Z,8.23
2023-01-07T08:31:26.049Z,8.10
2023-01-07T08:36:28.900Z,7.23
2023-01-07T08:41:31.578Z,7.50
2023-01-07T08:46:34.298Z,6.70
2023-01-07T08:51:37.604Z,7.70
2023-01-07T08:56:40.468Z,6.90
2023-01-07T09:01:43.443Z,6.10
2023-01-07T09:06:46.327Z,6.57
2023-01-07T09:11:49.111Z,6.45
2023-01-07T09:16:51.868Z,4.90
2023-01-07T09:21:54.630Z,5.13
2023-01-07T09:26:57.554Z,5.30
2023-01-07T09:32:00.181Z,5.03
2023-01-07T09:37:02.971Z,5.55
2023-01-07T09:42:18.837Z,5.23
2023-01-07T09:47:25.256Z,5.43
2023-01-07T09:52:37.176Z,4.60
2023-01-07T09:57:39.935Z,4.55
2023-01-07T10:03:30.416Z,4.65
2023-01-07T10:08:48.537Z,4.37
2023-01-07T10:14:02.993Z,4.10
2023-01-07T10:19:20.919Z,3.83
2023-01-07T10:24:32.329Z,4.20
2023-01-07T10:29:51.097Z,4.07
2023-01-07T10:34:57.487Z,4.73
2023-01-07T10:40:09.106Z,4.80
2023-01-07T10:45:18.760Z,3.77
2023-01-07T10:50:37.458Z,4.93
2023-01-07T10:56:07.039Z,4.32
2023-01-07T11:01:21.727Z,3.80
2023-01-07T11:06:39.982Z,3.90
2023-01-07T11:11:43.837Z,4.53
2023-01-07T11:16:52.070Z,4.65
2023-01-07T11:21:54.927Z,5.13
2023-01-07T11:27:09.653Z,5.20
2023-01-07T11:32:28.827Z,5.05
2023-01-07T11:37:46.477Z,4.77
2023-01-07T11:43:00.202Z,4.95
2023-01-07T11:48:10.686Z,4.97
2023-01-07T11:53:16.203Z,5.57
2023-01-07T11:58:28.427Z,5.47
2023-01-07T12:03:34.201Z,4.70
2023-01-07T12:08:37.648Z,5.25
2023-01-07T12:13:48.345Z,4.72
2023-01-07T12:19:15.426Z,4.03
2023-01-07T12:24:48.333Z,5.28
2023-01-07T12:30:10.457Z,4.10
2023-01-07T12:35:19.180Z,4.50
2023-01-07T12:40:39.237Z,4.47
2023-01-07T12:46:04.920Z,4.50
2023-01-07T12:52:02.925Z,4.55
2023-01-07T12:57:23.755Z,5.20
2023-01-07T13:02:38.657Z,4.30
2023-01-07T13:07:59.579Z,4.70
2023-01-07T13:13:09.816Z,4.57
2023-01-07T13:18:12.641Z,5.20
2023-01-07T13:23:52.292Z,4.70
2023-01-07T13:29:44.027Z,4.72
2023-01-07T13:35:16.964Z,4.80
2023-01-07T13:41:12.961Z,5.00
2023-01-07T13:46:21.744Z,4.55
2023-01-07T13:51:34.079Z,4.07
2023-01-07T13:56:38.603Z,3.88
2023-01-07T14:02:21.224Z,3.15
2023-01-07T14:07:24.281Z,3.00
2023-01-07T14:12:51.618Z,3.60
2023-01-07T14:18:27.927Z,4.07
2023-01-07T14:23:59.088Z,5.13
2023-01-07T14:29:42.675Z,4.75
2023-01-07T14:34:59.539Z,4.43
2023-01-07T14:40:21.267Z,6.22
2023-01-07T14:45:42.412Z,6.87
2023-01-07T14:50:55.120Z,6.70
2023-01-07T14:56:09.476Z,7.15
2023-01-07T15:01:18.425Z,7.07
2023-01-07T15:06:36.907Z,7.32
2023-01-07T15:12:02.021Z,7.00
2023-01-07T15:17:05.587Z,8.05
2023-01-07T15:22:36.640Z,8.25
2023-01-07T15:28:03.957Z,8.43
2023-01-07T15:33:31.354Z,10.35
2023-01-07T15:38:47.898Z,9.93
2023-01-07T15:43:52.617Z,11.18
2023-01-07T15:49:22.684Z,11.20
2023-01-07T15:54:32.152Z,11.93
2023-01-07T15:59:48.140Z,12.25
2023-01-07T16:04:53.473Z,9.63
2023-01-07T16:09:58.181Z,9.85
2023-01-07T16:15:04.724Z,8.18
2023-01-07T16:20:20.389Z,8.97
2023-01-07T16:25:40.559Z,8.60
2023-01-07T16:30:44.440Z,9.97
2023-01-07T16:35:49.958Z,7.38
2023-01-07T16:40:54.797Z,8.05
2023-01-07T16:46:19.136Z,7.90
2023-01-07T16:51:41.464Z,8.23
2023-01-07T16:57:10.260Z,8.67
2023-01-07T17:02:31.354Z,7.28
2023-01-07T17:07:34.383Z,9.50
2023-01-07T17:12:39.657Z,9.67
2023-01-07T17:17:42.479Z,8.90
2023-01-07T17:22:46.085Z,9.10
2023-01-07T17:27:53.291Z,7.50
2023-01-07T17:32:56.056Z,7.57
2023-01-07T17:37:58.806Z,9.17
2023-01-07T17:43:20.150Z,9.80
2023-01-07T17:48:22.851Z,8.23
2023-01-07T17:53:35.904Z,9.88
2023-01-07T17:58:41.438Z,10.88
2023-01-07T18:03:47.942Z,11.57
2023-01-07T18:08:52.535Z,12.75
2023-01-07T18:13:55.357Z,13.10
2023-01-07T18:18:58.104Z,22.60
2023-01-07T18:24:00.843Z,20.48
2023-01-07T18:29:03.617Z,20.00
2023-01-07T18:34:06.377Z,19.08
2023-01-07T18:39:17.391Z,17.33
2023-01-07T18:44:23.613Z,14.93
2023-01-07T18:49:26.378Z,14.05
2023-01-07T18:54:31.515Z,17.70
2023-01-07T18:59:34.472Z,14.10
2023-01-07T19:04:40.036Z,15.97
2023-01-07T19:09:42.895Z,15.23
2023-01-07T19:14:45.633Z,15.75
2023-01-07T19:19:49.143Z,12.40
2023-01-07T19:24:52.156Z,14.50
2023-01-07T19:29:55.101Z,14.13
2023-01-07T19:34:57.919Z,17.02
2023-01-07T19:40:00.812Z,14.55
2023-01-07T19:45:03.794Z,22.70
2023-01-07T19:50:07.210Z,21.60
2023-01-07T19:55:10.151Z,19.60
2023-01-07T20:00:13.253Z,18.00
2023-01-07T20:05:16.362Z,20.95
2023-01-07T20:10:19.259Z,17.23
2023-01-07T20:15:22.289Z,20.95
2023-01-07T20:20:25.157Z,19.23
2023-01-07T20:25:28.248Z,17.35
2023-01-07T20:30:31.085Z,21.73
2023-01-07T20:35:35.282Z,25.97
2023-01-07T20:40:44.082Z,22.17
2023-01-07T20:45:47.165Z,21.43
2023-01-07T20:50:50.102Z,21.13
2023-01-07T20:56:02.870Z,22.23
2023-01-07T21:01:08.384Z,22.80
2023-01-07T21:06:13.023Z,20.08
2023-01-07T21:11:20.984Z,20.27
2023-01-07T21:16:25.306Z,21.52
2023-01-07T21:21:28.261Z,19.20
2023-01-07T21:26:31.527Z,21.60
2023-01-07T21:31:34.552Z,18.02
2023-01-07T21:36:37.988Z,16.73
2023-01-07T21:41:40.998Z,18.92
2023-01-07T21:46:43.800Z,19.90
2023-01-07T21:51:46.654Z,15.33
2023-01-07T21:56:49.681Z,18.95
2023-01-07T22:01:53.311Z,16.73
2023-01-07T22:06:56.219Z,14.45
2023-01-07T22:11:58.997Z,15.38
2023-01-07T22:17:01.947Z,15.73
2023-01-07T22:22:06.120Z,15.35
2023-01-07T22:27:08.957Z,15.33
2023-01-07T22:32:11.757Z,16.60
2023-01-07T22:37:18.130Z,17.08
2023-01-07T22:42:30.264Z,17.93
2023-01-07T22:47:38.156Z,22.55
2023-01-07T22:52:42.898Z,28.07
2023-01-07T22:57:45.690Z,21.95
2023-01-07T23:02:48.511Z,22.50
2023-01-07T23:07:51.281Z,26.07
2023-01-07T23:12:54.374Z,25.05
2023-01-07T23:17:57.229Z,21.30
2023-01-07T23:23:00.912Z,22.77
2023-01-07T23:28:04.987Z,24.35
2023-01-07T23:33:08.081Z,23.57
2023-01-07T23:38:11.209Z,25.17
2023-01-07T23:43:13.851Z,22.57
2023-01-07T23:48:16.419Z,22.63
2023-01-07T23:53:19.111Z,23.25
2023-01-07T23:58:23.243Z,22.60
